createdAt,value
2017-12-06T00:00:31.245Z,6.91
2017-12-06T00:02:57.044Z,6.93
2017-12-06T00:05:22.855Z,6.97
2017-12-06T00:07:48.643Z,6.98
2017-12-06T00:10:14.435Z,6.96
2017-12-06T00:12:46.235Z,6.95
2017-12-06T00:18:12.012Z,6.96
2017-12-06T00:20:37.830Z,6.94
2017-12-06T00:23:03.638Z,6.97
2017-12-06T00:25:29.449Z,6.98
2017-12-06T00:27:55.267Z,6.97
2017-12-06T00:30:21.056Z,6.95
2017-12-06T00:32:47.052Z,6.92
2017-12-06T00:35:12.804Z,6.95
2017-12-06T00:37:38.597Z,6.94
2017-12-06T00:40:04.479Z,6.95
2017-12-06T00:42:30.297Z,6.90
2017-12-06T00:44:56.076Z,6.90
2017-12-06T00:47:21.887Z,6.90
2017-12-06T00:49:47.662Z,6.89
2017-12-06T00:52:13.452Z,6.86
2017-12-06T00:54:39.273Z,6.85
2017-12-06T00:57:05.064Z,6.86
2017-12-06T00:59:30.848Z,6.86
2017-12-06T01:01:56.751Z,6.86
2017-12-06T01:04:22.524Z,6.83
2017-12-06T01:06:48.332Z,6.84
2017-12-06T01:09:14.157Z,6.81
2017-12-06T01:11:39.949Z,6.80
2017-12-06T01:14:05.735Z,6.81
2017-12-06T01:16:31.548Z,6.83
2017-12-06T01:18:57.336Z,6.85
2017-12-06T01:21:23.135Z,6.88
2017-12-06T01:23:49.122Z,6.88
2017-12-06T01:26:14.905Z,6.91
2017-12-06T01:28:40.708Z,6.90
2017-12-06T01:31:06.806Z,6.91
2017-12-06T01:33:32.623Z,6.95
2017-12-06T01:35:58.420Z,6.95
2017-12-06T01:38:24.220Z,6.96
2017-12-06T01:40:50.020Z,6.96
2017-12-06T01:43:15.832Z,6.99
2017-12-06T01:45:41.635Z,6.95
2017-12-06T01:48:07.429Z,6.99
2017-12-06T01:50:33.245Z,7.01
2017-12-06T01:52:59.055Z,7.02
2017-12-06T01:55:24.874Z,7.02
2017-12-06T01:57:50.871Z,7.04
2017-12-06T02:00:16.662Z,7.03
2017-12-06T02:02:42.463Z,7.06
2017-12-06T02:05:08.279Z,7.08
2017-12-06T02:07:34.072Z,7.08
2017-12-06T02:09:59.847Z,7.07
2017-12-06T02:12:25.649Z,7.02
2017-12-06T02:14:51.438Z,7.08
2017-12-06T02:17:17.260Z,7.07
2017-12-06T02:19:43.088Z,7.03
2017-12-06T02:22:08.888Z,7.02
2017-12-06T02:24:34.728Z,7.04
2017-12-06T02:27:00.538Z,7.00
2017-12-06T02:29:26.363Z,7.00
2017-12-06T02:31:52.181Z,6.96
2017-12-06T02:34:17.995Z,6.92
2017-12-06T02:36:43.791Z,6.93
2017-12-06T02:39:09.939Z,6.92
2017-12-06T02:41:48.329Z,6.92
2017-12-06T02:44:26.523Z,6.91
2017-12-06T02:46:52.335Z,6.93
2017-12-06T02:49:18.140Z,6.91
2017-12-06T02:51:43.949Z,6.96
2017-12-06T02:54:09.765Z,7.01
2017-12-06T02:56:35.554Z,6.98
2017-12-06T02:59:01.339Z,6.97
2017-12-06T03:01:27.148Z,7.02
2017-12-06T03:03:52.975Z,6.99
2017-12-06T03:06:18.767Z,7.03
2017-12-06T03:08:44.553Z,7.03
2017-12-06T03:11:10.359Z,7.02
2017-12-06T03:13:36.155Z,7.02
2017-12-06T03:16:01.947Z,7.01
2017-12-06T03:18:27.764Z,7.03
2017-12-06T03:20:53.545Z,6.99
2017-12-06T03:23:19.341Z,7.00
2017-12-06T03:25:45.144Z,6.99
2017-12-06T03:28:10.956Z,7.00
2017-12-06T03:30:36.745Z,7.00
2017-12-06T03:33:02.926Z,7.03
2017-12-06T03:35:28.730Z,7.00
2017-12-06T03:37:54.558Z,7.00
2017-12-06T03:40:20.383Z,7.02
2017-12-06T03:42:46.160Z,7.01
2017-12-06T03:45:11.976Z,6.97
2017-12-06T03:47:37.763Z,6.95
2017-12-06T03:50:03.566Z,6.99
2017-12-06T03:52:29.672Z,7.01
2017-12-06T03:54:55.476Z,7.01
2017-12-06T03:57:21.267Z,6.99
2017-12-06T03:59:47.112Z,6.96
2017-12-06T04:02:12.912Z,7.00
2017-12-06T04:04:38.727Z,7.02
2017-12-06T04:07:04.785Z,7.00
2017-12-06T04:09:30.577Z,7.06
2017-12-06T04:11:56.359Z,7.02
2017-12-06T04:14:22.216Z,7.05
2017-12-06T04:16:48.048Z,7.06
2017-12-06T04:19:13.888Z,7.05
2017-12-06T04:21:40.005Z,7.08
2017-12-06T04:24:05.812Z,7.03
2017-12-06T04:26:31.616Z,7.13
2017-12-06T04:28:57.426Z,7.13
2017-12-06T04:31:23.224Z,7.13
2017-12-06T04:33:49.020Z,7.14
2017-12-06T04:36:14.820Z,7.12
2017-12-06T04:38:40.611Z,7.15
2017-12-06T04:41:06.430Z,7.16
2017-12-06T04:43:32.244Z,7.19
2017-12-06T04:45:58.042Z,7.17
2017-12-06T04:48:23.851Z,7.18
2017-12-06T04:50:49.653Z,7.20
2017-12-06T04:53:15.461Z,7.21
2017-12-06T04:55:41.282Z,7.21
2017-12-06T04:58:07.064Z,7.22
2017-12-06T05:00:32.856Z,7.17
2017-12-06T05:02:58.689Z,7.17
2017-12-06T05:05:24.513Z,7.17
2017-12-06T05:07:50.317Z,7.20
2017-12-06T05:10:16.367Z,7.19
2017-12-06T05:12:42.171Z,7.13
2017-12-06T05:15:07.982Z,7.17
2017-12-06T05:17:33.776Z,7.15
2017-12-06T05:19:59.552Z,7.17
2017-12-06T05:22:25.665Z,7.20
2017-12-06T05:24:51.472Z,7.17
2017-12-06T05:27:17.282Z,7.15
2017-12-06T05:29:43.113Z,7.19
2017-12-06T05:32:08.911Z,7.16
2017-12-06T05:34:34.688Z,7.16
2017-12-06T05:37:00.454Z,7.20
2017-12-06T05:39:27.112Z,7.15
2017-12-06T05:41:52.917Z,7.16
2017-12-06T05:44:18.708Z,7.15
2017-12-06T05:46:44.523Z,7.15
2017-12-06T05:49:10.304Z,7.17
2017-12-06T05:51:36.117Z,7.18
2017-12-06T05:54:01.910Z,7.23
2017-12-06T05:56:27.691Z,7.19
2017-12-06T05:58:53.559Z,7.18
2017-12-06T06:01:19.356Z,7.23
2017-12-06T06:03:45.137Z,7.22
2017-12-06T06:06:11.759Z,7.19
2017-12-06T06:08:37.552Z,7.21
2017-12-06T06:11:03.328Z,7.18
2017-12-06T06:13:29.135Z,7.18
2017-12-06T06:15:54.927Z,7.20
2017-12-06T06:18:20.738Z,7.18
2017-12-06T06:20:46.556Z,7.23
2017-12-06T06:23:12.339Z,7.23
2017-12-06T06:25:38.132Z,7.22
2017-12-06T06:28:04.292Z,7.21
2017-12-06T06:30:30.112Z,7.25
2017-12-06T06:32:55.921Z,7.22
2017-12-06T06:35:21.752Z,7.21
2017-12-06T06:37:47.532Z,7.21
2017-12-06T06:40:13.342Z,7.19
2017-12-06T06:42:39.150Z,7.21
2017-12-06T06:45:04.965Z,7.21
2017-12-06T06:47:30.757Z,7.20
2017-12-06T06:49:56.584Z,7.18
2017-12-06T06:52:22.375Z,7.20
2017-12-06T06:54:48.200Z,7.21
2017-12-06T06:57:14.301Z,7.21
2017-12-06T06:59:40.115Z,7.16
2017-12-06T07:02:05.929Z,7.21
2017-12-06T07:04:31.738Z,7.21
2017-12-06T07:06:57.556Z,7.20
2017-12-06T07:09:23.343Z,7.20
2017-12-06T07:11:49.152Z,7.20
2017-12-06T07:14:14.952Z,7.24
2017-12-06T07:16:40.737Z,7.24
2017-12-06T07:19:06.551Z,7.26
2017-12-06T07:21:32.346Z,7.24
2017-12-06T07:23:58.531Z,7.25
2017-12-06T07:26:24.315Z,7.25
2017-12-06T07:28:50.143Z,7.27
2017-12-06T07:31:15.981Z,7.25
2017-12-06T07:33:41.773Z,7.26
2017-12-06T07:36:07.577Z,7.25
2017-12-06T07:38:33.404Z,7.26
2017-12-06T07:40:59.239Z,7.25
2017-12-06T07:43:25.074Z,7.29
2017-12-06T07:45:51.157Z,7.32
2017-12-06T07:48:16.984Z,7.34
2017-12-06T07:50:42.800Z,7.30
2017-12-06T07:53:08.612Z,7.26
2017-12-06T07:55:34.404Z,7.33
2017-12-06T07:58:00.195Z,7.35
2017-12-06T08:00:27.743Z,7.31
2017-12-06T08:02:53.599Z,7.34
2017-12-06T08:05:19.375Z,7.33
2017-12-06T08:07:45.248Z,7.35
2017-12-06T08:10:11.701Z,7.32
2017-12-06T08:12:38.432Z,7.32
2017-12-06T08:15:05.351Z,7.33
2017-12-06T08:17:32.109Z,7.34
2017-12-06T08:19:59.049Z,7.33
2017-12-06T08:22:25.922Z,7.38
2017-12-06T08:24:52.482Z,7.37
2017-12-06T08:27:21.804Z,7.35
2017-12-06T08:29:48.524Z,7.35
2017-12-06T08:32:15.470Z,7.39
2017-12-06T08:34:42.315Z,7.38
2017-12-06T08:37:11.052Z,7.43
2017-12-06T08:39:38.042Z,7.43
2017-12-06T08:42:04.679Z,7.43
2017-12-06T08:44:32.134Z,7.44
2017-12-06T08:46:59.283Z,7.44
2017-12-06T08:49:26.125Z,7.44
2017-12-06T08:51:53.378Z,7.49
2017-12-06T08:54:21.601Z,7.48
2017-12-06T08:56:49.315Z,7.52
2017-12-06T08:59:16.464Z,7.49
2017-12-06T09:01:42.827Z,7.49
2017-12-06T09:04:09.333Z,7.49
2017-12-06T09:06:36.184Z,7.50
2017-12-06T09:09:02.777Z,7.52
2017-12-06T09:11:30.665Z,7.56
2017-12-06T09:13:57.993Z,7.62
2017-12-06T09:16:24.676Z,7.70
2017-12-06T09:18:50.855Z,7.71
2017-12-06T09:21:17.753Z,7.72
2017-12-06T09:23:44.259Z,7.78
2017-12-06T09:26:10.962Z,7.70
2017-12-06T09:28:37.494Z,7.68
2017-12-06T09:31:03.295Z,7.73
2017-12-06T09:36:01.890Z,7.71
2017-12-06T09:38:27.736Z,7.74
2017-12-06T09:40:53.548Z,7.78
2017-12-06T09:43:19.351Z,7.81
2017-12-06T09:45:45.168Z,7.78
2017-12-06T09:48:10.969Z,7.86
2017-12-06T09:50:36.781Z,7.81
2017-12-06T09:53:02.640Z,7.89
2017-12-06T09:55:28.511Z,7.82
2017-12-06T09:57:54.961Z,7.80
2017-12-06T10:00:20.779Z,7.86
2017-12-06T10:02:46.572Z,7.92
2017-12-06T10:05:13.562Z,7.90
2017-12-06T10:07:39.359Z,7.91
2017-12-06T10:10:05.263Z,7.96
2017-12-06T10:12:31.121Z,7.92
2017-12-06T10:14:56.927Z,8.06
2017-12-06T10:17:22.714Z,8.01
2017-12-06T10:19:48.950Z,8.06
2017-12-06T10:22:15.790Z,8.01
2017-12-06T10:24:41.610Z,8.14
2017-12-06T10:27:07.559Z,8.00
2017-12-06T10:29:34.781Z,8.08
2017-12-06T10:32:00.575Z,8.01
2017-12-06T10:34:26.726Z,7.98
2017-12-06T10:36:52.584Z,7.99
2017-12-06T10:39:18.427Z,7.99
2017-12-06T10:41:44.285Z,8.00
2017-12-06T10:44:10.095Z,7.95
2017-12-06T10:46:35.904Z,7.91
2017-12-06T10:49:01.718Z,7.91
2017-12-06T10:51:27.519Z,7.92
2017-12-06T10:53:53.333Z,7.93
2017-12-06T10:56:19.133Z,7.87
2017-12-06T10:58:44.931Z,7.89
2017-12-06T11:01:10.746Z,7.88
2017-12-06T11:03:36.545Z,7.93
2017-12-06T11:06:02.345Z,7.93
2017-12-06T11:08:28.151Z,8.00
2017-12-06T11:10:53.946Z,7.96
2017-12-06T11:13:19.743Z,7.99
2017-12-06T11:15:45.649Z,8.04
2017-12-06T11:18:11.439Z,8.04
2017-12-06T11:20:37.241Z,8.07
2017-12-06T11:23:03.091Z,8.02
2017-12-06T11:25:28.898Z,8.02
2017-12-06T11:27:54.707Z,8.05
2017-12-06T11:30:20.531Z,8.05
2017-12-06T11:32:46.349Z,8.13
2017-12-06T11:35:12.151Z,8.12
2017-12-06T11:37:37.981Z,8.12
2017-12-06T11:40:03.777Z,8.12
2017-12-06T11:42:29.951Z,8.10
2017-12-06T11:44:55.745Z,8.07
2017-12-06T11:47:21.522Z,8.08
2017-12-06T11:49:47.713Z,8.09
2017-12-06T11:52:13.514Z,8.07
2017-12-06T11:54:39.303Z,8.10
2017-12-06T11:57:05.117Z,8.03
2017-12-06T11:59:30.931Z,8.03
2017-12-06T12:01:56.745Z,8.05
2017-12-06T12:04:22.536Z,8.05
2017-12-06T12:06:48.328Z,8.03
2017-12-06T12:09:14.182Z,8.03
2017-12-06T12:11:39.928Z,8.01
2017-12-06T12:14:05.775Z,8.07
2017-12-06T12:16:31.600Z,8.08
2017-12-06T12:18:57.962Z,8.04
2017-12-06T12:21:24.162Z,8.06
2017-12-06T12:23:50.020Z,8.06
2017-12-06T12:26:15.824Z,8.05
2017-12-06T12:28:42.140Z,8.05
2017-12-06T12:31:08.924Z,8.11
2017-12-06T12:33:35.513Z,8.10
2017-12-06T12:36:02.154Z,8.13
2017-12-06T12:38:28.816Z,8.07
2017-12-06T12:40:56.055Z,8.12
2017-12-06T12:43:22.767Z,8.13
2017-12-06T12:45:57.704Z,8.09
2017-12-06T12:48:25.027Z,7.99
2017-12-06T12:50:51.849Z,8.07
2017-12-06T12:53:18.360Z,8.09
2017-12-06T12:55:45.379Z,8.05
2017-12-06T12:58:12.348Z,8.12
2017-12-06T13:00:39.219Z,8.12
2017-12-06T13:03:06.111Z,8.04
2017-12-06T13:05:32.621Z,8.08
2017-12-06T13:07:59.348Z,8.06
2017-12-06T13:10:26.331Z,7.99
2017-12-06T13:12:53.158Z,8.02
2017-12-06T13:15:19.836Z,8.02
2017-12-06T13:17:46.873Z,8.00
2017-12-06T13:20:13.787Z,7.91
2017-12-06T13:22:40.455Z,7.88
2017-12-06T13:25:07.318Z,7.86
2017-12-06T13:27:34.141Z,7.82
2017-12-06T13:30:01.154Z,7.88
2017-12-06T13:32:27.935Z,7.83
2017-12-06T13:34:54.736Z,7.94
2017-12-06T13:37:21.276Z,7.93
2017-12-06T13:39:47.086Z,7.98
2017-12-06T13:42:13.450Z,7.96
2017-12-06T13:44:39.329Z,8.03
2017-12-06T13:47:05.139Z,8.03
2017-12-06T13:49:31.405Z,7.99
2017-12-06T13:51:59.477Z,8.07
2017-12-06T13:54:25.645Z,8.06
2017-12-06T13:56:51.487Z,8.08
2017-12-06T13:59:17.420Z,8.08
2017-12-06T14:01:43.270Z,8.11
2017-12-06T14:04:09.117Z,8.14
2017-12-06T14:06:34.934Z,8.13
2017-12-06T14:09:00.935Z,8.17
2017-12-06T14:11:26.767Z,8.20
2017-12-06T14:13:52.863Z,8.22
2017-12-06T14:16:18.763Z,8.21
2017-12-06T14:18:44.936Z,8.23
2017-12-06T14:21:10.806Z,8.22
2017-12-06T14:26:09.275Z,8.21
2017-12-06T14:28:35.056Z,8.22
2017-12-06T14:31:00.860Z,8.20
2017-12-06T14:33:27.768Z,8.24
2017-12-06T14:35:53.584Z,8.21
2017-12-06T14:38:19.395Z,8.21
2017-12-06T14:40:45.223Z,8.23
2017-12-06T14:43:11.044Z,8.26
2017-12-06T14:45:36.852Z,8.23
2017-12-06T14:48:02.930Z,8.26
2017-12-06T14:50:28.740Z,8.22
2017-12-06T14:52:54.754Z,8.23
2017-12-06T14:55:20.599Z,8.25
2017-12-06T14:57:47.506Z,8.24
2017-12-06T15:00:13.312Z,8.25
2017-12-06T15:02:39.676Z,8.23
2017-12-06T15:05:05.501Z,8.25
2017-12-06T15:07:31.302Z,8.24
2017-12-06T15:09:57.136Z,8.24
2017-12-06T15:12:22.931Z,8.25
2017-12-06T15:14:49.190Z,8.26
2017-12-06T15:17:15.024Z,8.25
2017-12-06T15:19:41.182Z,8.29
2017-12-06T15:22:06.989Z,8.30
2017-12-06T15:24:32.960Z,8.28
2017-12-06T15:26:58.841Z,8.24
2017-12-06T15:29:24.642Z,8.23
2017-12-06T15:31:50.826Z,8.27
2017-12-06T15:34:16.722Z,8.29
2017-12-06T15:36:42.544Z,8.29
2017-12-06T15:39:08.588Z,8.30
2017-12-06T15:41:34.392Z,8.28
2017-12-06T15:44:00.307Z,8.28
2017-12-06T15:46:26.122Z,8.30
2017-12-06T15:48:51.932Z,8.32
2017-12-06T15:51:19.725Z,8.31
2017-12-06T15:53:45.775Z,8.31
2017-12-06T15:56:11.594Z,8.31
2017-12-06T15:58:37.408Z,8.32
2017-12-06T16:01:03.612Z,8.31
2017-12-06T16:03:29.455Z,8.33
2017-12-06T16:05:55.620Z,8.34
2017-12-06T16:08:21.584Z,8.37
2017-12-06T16:10:47.428Z,8.35
2017-12-06T16:13:13.934Z,8.35
2017-12-06T16:15:40.023Z,8.39
2017-12-06T16:18:06.363Z,8.37
2017-12-06T16:20:32.166Z,8.38
2017-12-06T16:22:58.416Z,8.37
2017-12-06T16:25:24.251Z,8.39
2017-12-06T16:27:50.080Z,8.38
2017-12-06T16:30:16.005Z,8.37
2017-12-06T16:32:41.849Z,8.40
2017-12-06T16:35:20.145Z,8.39
2017-12-06T16:37:46.054Z,8.40
2017-12-06T16:40:11.866Z,8.42
2017-12-06T16:42:37.734Z,8.40
2017-12-06T16:45:03.539Z,8.39
2017-12-06T16:47:29.416Z,8.40
2017-12-06T16:49:55.299Z,8.41
2017-12-06T16:52:21.105Z,8.42
2017-12-06T16:54:46.975Z,8.41
2017-12-06T16:57:12.795Z,8.41
2017-12-06T16:59:38.635Z,8.43
2017-12-06T17:02:04.532Z,8.41
2017-12-06T17:04:30.400Z,8.44
2017-12-06T17:06:56.259Z,8.44
2017-12-06T17:09:22.109Z,8.45
2017-12-06T17:11:48.001Z,8.42
2017-12-06T17:14:13.803Z,8.44
2017-12-06T17:16:39.608Z,8.44
2017-12-06T17:19:05.447Z,8.50
2017-12-06T17:21:31.246Z,8.47
2017-12-06T17:23:57.088Z,8.48
2017-12-06T17:26:22.995Z,8.48
2017-12-06T17:29:01.239Z,8.45
2017-12-06T17:31:39.479Z,8.46
2017-12-06T17:34:05.293Z,8.47
2017-12-06T17:36:31.107Z,8.49
2017-12-06T17:38:56.962Z,8.50
2017-12-06T17:41:22.816Z,8.51
2017-12-06T17:43:48.646Z,8.45
2017-12-06T17:46:14.560Z,8.42
2017-12-06T17:48:40.375Z,8.41
2017-12-06T17:51:06.180Z,8.40
2017-12-06T17:53:32.123Z,8.40
2017-12-06T17:55:57.959Z,8.38
2017-12-06T17:58:23.749Z,8.39
2017-12-06T18:00:49.592Z,8.39
2017-12-06T18:03:15.420Z,8.41
2017-12-06T18:05:41.227Z,8.44
2017-12-06T18:08:07.332Z,8.42
2017-12-06T18:10:33.159Z,8.35
2017-12-06T18:12:58.952Z,8.45
2017-12-06T18:15:24.758Z,8.48
2017-12-06T18:17:50.587Z,8.53
2017-12-06T18:20:16.427Z,8.57
2017-12-06T18:22:42.246Z,8.56
2017-12-06T18:25:08.060Z,8.61
2017-12-06T18:27:33.887Z,8.57
2017-12-06T18:29:59.686Z,8.60
2017-12-06T18:32:25.488Z,8.64
2017-12-06T18:34:51.396Z,8.64
2017-12-06T18:37:17.204Z,8.63
2017-12-06T18:39:43.031Z,8.65
2017-12-06T18:42:08.844Z,8.62
2017-12-06T18:44:34.668Z,8.61
2017-12-06T18:47:00.504Z,8.61
2017-12-06T18:49:26.336Z,8.58
2017-12-06T18:51:52.145Z,8.58
2017-12-06T18:54:17.958Z,8.52
2017-12-06T18:56:44.617Z,8.48
2017-12-06T18:59:10.427Z,8.48
2017-12-06T19:01:36.235Z,8.48
2017-12-06T19:04:02.091Z,8.42
2017-12-06T19:06:27.898Z,8.40
2017-12-06T19:08:53.706Z,8.38
2017-12-06T19:11:19.496Z,8.37
2017-12-06T19:13:45.292Z,8.36
2017-12-06T19:16:11.112Z,8.32
2017-12-06T19:18:36.916Z,8.29
2017-12-06T19:21:02.736Z,8.30
2017-12-06T19:23:28.556Z,8.30
2017-12-06T19:25:54.370Z,8.27
2017-12-06T19:28:20.165Z,8.32
2017-12-06T19:30:46.269Z,8.31
2017-12-06T19:33:12.076Z,8.33
2017-12-06T19:35:37.864Z,8.31
2017-12-06T19:38:03.661Z,8.30
2017-12-06T19:40:29.463Z,8.35
2017-12-06T19:42:55.449Z,8.35
2017-12-06T19:45:21.247Z,8.37
2017-12-06T19:47:47.049Z,8.37
2017-12-06T19:50:12.866Z,8.33
2017-12-06T19:52:38.667Z,8.37
2017-12-06T19:55:04.467Z,8.38
2017-12-06T19:57:30.388Z,8.36
2017-12-06T19:59:56.300Z,8.37
2017-12-06T20:02:22.126Z,8.38
2017-12-06T20:04:47.937Z,8.38
2017-12-06T20:07:13.723Z,8.37
2017-12-06T20:09:39.560Z,8.39
2017-12-06T20:12:05.386Z,8.38
2017-12-06T20:14:31.171Z,8.38
2017-12-06T20:16:56.991Z,8.40
2017-12-06T20:19:22.806Z,8.41
2017-12-06T20:21:48.635Z,8.42
2017-12-06T20:24:15.272Z,8.43
2017-12-06T20:26:41.062Z,8.42
2017-12-06T20:29:06.885Z,8.44
2017-12-06T20:31:32.717Z,8.45
2017-12-06T20:33:58.556Z,8.48
2017-12-06T20:36:24.356Z,8.47
2017-12-06T20:38:50.185Z,8.52
2017-12-06T20:41:15.977Z,8.52
2017-12-06T20:43:41.777Z,8.55
2017-12-06T20:46:07.596Z,8.57
2017-12-06T20:48:33.403Z,8.58
2017-12-06T20:50:59.191Z,8.56
2017-12-06T20:53:25.017Z,8.59
2017-12-06T20:55:50.819Z,8.60
2017-12-06T20:58:16.615Z,8.56
2017-12-06T21:00:42.680Z,8.58
2017-12-06T21:03:08.480Z,8.59
2017-12-06T21:05:34.260Z,8.60
2017-12-06T21:08:00.092Z,8.60
2017-12-06T21:10:25.915Z,8.62
2017-12-06T21:12:51.745Z,8.61
2017-12-06T21:15:17.528Z,8.64
2017-12-06T21:17:43.329Z,8.61
2017-12-06T21:20:09.170Z,8.63
2017-12-06T21:22:34.963Z,8.60
2017-12-06T21:25:00.765Z,8.56
2017-12-06T21:27:26.555Z,8.51
2017-12-06T21:29:52.371Z,8.49
2017-12-06T21:32:18.168Z,8.48
2017-12-06T21:34:43.959Z,8.48
2017-12-06T21:37:09.750Z,8.43
2017-12-06T21:39:35.544Z,8.45
2017-12-06T21:42:01.324Z,8.46
2017-12-06T21:44:27.132Z,8.47
2017-12-06T21:46:52.946Z,8.45
2017-12-06T21:49:18.739Z,8.46
2017-12-06T21:51:45.368Z,8.44
2017-12-06T21:54:11.175Z,8.43
2017-12-06T21:56:36.943Z,8.41
2017-12-06T21:59:02.865Z,8.39
2017-12-06T22:01:28.656Z,8.42
2017-12-06T22:03:54.447Z,8.43
2017-12-06T22:06:20.263Z,8.41
2017-12-06T22:08:46.373Z,8.44
2017-12-06T22:11:12.199Z,8.41
2017-12-06T22:13:38.079Z,8.37
2017-12-06T22:16:03.884Z,8.39
2017-12-06T22:18:29.680Z,8.39
2017-12-06T22:20:55.765Z,8.41
2017-12-06T22:23:21.596Z,8.37
2017-12-06T22:25:47.713Z,8.36
2017-12-06T22:28:13.532Z,8.32
2017-12-06T22:30:39.754Z,8.31
2017-12-06T22:33:05.572Z,8.31
2017-12-06T22:35:31.391Z,8.37
2017-12-06T22:37:57.173Z,8.31
2017-12-06T22:40:23.193Z,8.23
2017-12-06T22:42:49.002Z,8.22
2017-12-06T22:45:15.043Z,8.22
2017-12-06T22:47:41.190Z,8.21
2017-12-06T22:50:07.323Z,8.16
2017-12-06T22:52:33.152Z,8.14
2017-12-06T22:54:58.936Z,8.15
2017-12-06T22:57:24.757Z,8.14
2017-12-06T22:59:50.709Z,8.09
2017-12-06T23:02:16.796Z,8.11
2017-12-06T23:04:42.610Z,8.12
2017-12-06T23:07:08.422Z,8.06
2017-12-06T23:09:34.559Z,8.08
2017-12-06T23:12:00.828Z,8.10
2017-12-06T23:14:26.712Z,8.07
2017-12-06T23:16:53.863Z,8.10
2017-12-06T23:19:20.080Z,8.07
2017-12-06T23:21:45.939Z,8.05
2017-12-06T23:24:12.021Z,8.03
2017-12-06T23:26:37.924Z,8.06
2017-12-06T23:29:03.736Z,8.04
2017-12-06T23:31:29.559Z,8.05
2017-12-06T23:33:55.355Z,8.11
2017-12-06T23:36:21.192Z,8.03
2017-12-06T23:38:49.237Z,8.12
2017-12-06T23:41:16.202Z,8.08
2017-12-06T23:43:42.148Z,8.10
2017-12-06T23:46:08.007Z,8.09
2017-12-06T23:48:33.821Z,8.10
2017-12-06T23:50:59.733Z,8.11
2017-12-06T23:53:25.539Z,8.13
2017-12-06T23:55:51.330Z,8.15
2017-12-06T23:58:17.145Z,8.14
